Time;durP1;ratioP1;P1;durP2;ratioP2;P2;SDS_P1;SDS_P2;PMS_P1;PMS_P2;Temp;Humidity;BMP_temperature;BMP_pressure;BME280_temperature;BME280_humidity;BME280_pressure;Samples;Min_cycle;Max_cycle;Signal;HPM_P1;HPM_P2
2023/08/10 00:02:53;;;;;;;;;5.60;5.60;;;;;19.11;100.00;99093.88;6260590;27;97000;-62
2023/08/10 00:05:56;;;;;;;;;6.00;5.00;;;;;19.08;100.00;99093.63;6283962;27;96233;-62
2023/08/10 00:08:59;;;;;;;;;6.60;6.60;;;;;19.07;100.00;99095.53;6287097;27;96173;-63
2023/08/10 00:12:04;;;;;;;;;6.60;6.60;;;;;18.99;100.00;99096.88;6250316;27;97513;-62
2023/08/10 00:15:09;;;;;;;;;5.00;5.00;;;;;18.98;100.00;99089.78;6292765;27;96396;-62
2023/08/10 00:18:12;;;;;;;;;4.80;4.80;;;;;18.92;100.00;99082.66;6268301;27;96855;-62
2023/08/10 00:21:16;;;;;;;;;5.50;5.00;;;;;18.88;100.00;99094.41;6283167;27;96896;-62
2023/08/10 00:24:19;;;;;;;;;7.00;7.00;;;;;18.86;100.00;99094.66;6285825;27;96361;-62
2023/08/10 00:27:25;;;;;;;;;5.00;5.00;;;;;18.84;100.00;99085.94;6286421;27;96466;-62
2023/08/10 00:30:29;;;;;;;;;6.00;5.00;;;;;18.84;100.00;99094.13;6260459;27;96361;-62
2023/08/10 00:33:32;;;;;;;;;6.40;5.60;;;;;18.79;100.00;99102.31;6249981;27;98565;-62
2023/08/10 00:36:36;;;;;;;;;5.25;5.25;;;;;18.79;100.00;99113.25;6273097;27;96319;-62
2023/08/10 00:39:39;;;;;;;;;7.00;6.00;;;;;18.77;100.00;99103.66;6262866;27;98820;-62
2023/08/10 00:42:44;;;;;;;;;7.00;5.50;;;;;18.71;100.00;99107.50;6255047;27;96770;-62
2023/08/10 00:45:47;;;;;;;;;4.00;3.40;;;;;18.76;100.00;99108.31;6270387;27;97257;-62
2023/08/10 00:48:50;;;;;;;;;7.00;6.00;;;;;18.79;100.00;99120.63;6255170;27;98638;-63
2023/08/10 00:51:54;;;;;;;;;5.00;5.00;;;;;18.79;100.00;99124.16;6291129;27;96462;-62
2023/08/10 00:54:57;;;;;;;;;6.00;6.00;;;;;18.80;100.00;99125.00;6261127;27;96737;-62
2023/08/10 00:58:02;;;;;;;;;4.40;4.40;;;;;18.78;100.00;99124.44;6290787;27;96765;-62
2023/08/10 01:01:05;;;;;;;;;6.00;6.00;;;;;18.73;100.00;99113.47;6272629;27;96392;-62
2023/08/10 01:04:08;;;;;;;;;6.00;5.33;;;;;18.72;100.00;99118.13;6271712;27;98465;-62
2023/08/10 01:07:23;;;;;;;;;6.80;6.80;;;;;18.77;100.00;99117.31;6261105;27;96422;-62
2023/08/10 01:10:34;;;;;;;;;6.00;5.00;;;;;18.75;100.00;99112.16;6264261;27;96332;-62
2023/08/10 01:13:45;;;;;;;;;5.00;4.20;;;;;18.76;100.00;99119.25;6285335;27;97126;-62
2023/08/10 01:16:52;;;;;;;;;8.00;7.00;;;;;18.72;100.00;99130.97;6267838;27;96858;-62
2023/08/10 01:19:57;;;;;;;;;6.60;6.00;;;;;18.65;100.00;99133.13;6284495;27;96579;-62
2023/08/10 01:23:13;;;;;;;;;7.00;7.00;;;;;18.68;100.00;99135.31;6275744;27;96616;-62
2023/08/10 01:26:18;;;;;;;;;5.00;5.00;;;;;18.73;100.00;99135.34;6269044;27;96598;-62
2023/08/10 01:29:23;;;;;;;;;6.00;5.20;;;;;18.70;100.00;99141.34;6261869;27;96659;-61
2023/08/10 01:32:28;;;;;;;;;7.00;7.00;;;;;18.72;100.00;99142.72;6263692;27;96801;-62
2023/08/10 01:35:32;;;;;;;;;6.25;6.00;;;;;18.71;100.00;99140.25;6254316;27;97404;-62
2023/08/10 01:38:35;;;;;;;;;6.80;5.80;;;;;18.73;100.00;99143.53;6242173;27;96725;-62
2023/08/10 01:41:40;;;;;;;;;6.00;6.00;;;;;18.68;100.00;99147.06;6284100;27;96361;-62
2023/08/10 01:44:43;;;;;;;;;7.00;6.80;;;;;18.70;100.00;99142.16;6289122;27;96727;-63
2023/08/10 01:47:52;;;;;;;;;9.00;8.00;;;;;18.66;100.00;99141.06;6283825;27;96429;-62
2023/08/10 01:50:58;;;;;;;;;7.20;7.00;;;;;18.70;100.00;99135.88;6279269;27;96145;-62
2023/08/10 01:54:04;;;;;;;;;7.80;6.80;;;;;18.65;100.00;99142.16;6271774;27;96936;-62
2023/08/10 01:57:08;;;;;;;;;8.40;8.40;;;;;18.59;100.00;99145.94;6288109;27;97127;-62
2023/08/10 02:00:13;;;;;;;;;9.00;8.00;;;;;18.63;100.00;99155.25;6244863;27;96323;-62
2023/08/10 02:03:20;;;;;;;;;10.00;9.00;;;;;18.55;100.00;99148.41;6283809;27;96460;-62
2023/08/10 02:06:23;;;;;;;;;7.00;7.00;;;;;18.56;100.00;99149.22;6289306;27;96616;-62
2023/08/10 02:09:27;;;;;;;;;7.00;6.00;;;;;18.53;100.00;99146.97;6249903;27;96480;-62
2023/08/10 02:12:31;;;;;;;;;9.40;8.00;;;;;18.54;100.00;99156.84;6256331;27;99741;-63
2023/08/10 02:15:34;;;;;;;;;8.50;7.50;;;;;18.56;100.00;99152.78;6247456;27;96692;-62
2023/08/10 02:18:39;;;;;;;;;8.40;8.00;;;;;18.56;100.00;99154.69;6270126;27;96242;-62
2023/08/10 02:21:43;;;;;;;;;7.50;5.75;;;;;18.61;100.00;99157.44;6270869;27;96371;-62
2023/08/10 02:24:46;;;;;;;;;8.00;6.00;;;;;18.63;100.00;99157.97;6273305;27;97511;-64
2023/08/10 02:27:51;;;;;;;;;8.60;8.00;;;;;18.69;100.00;99153.34;6288257;27;96613;-62
2023/08/10 02:30:54;;;;;;;;;8.00;7.00;;;;;18.74;100.00;99158.84;6270305;27;96414;-62
2023/08/10 02:33:57;;;;;;;;;6.40;6.00;;;;;18.73;100.00;99151.72;6288766;27;96214;-63
2023/08/10 02:37:00;;;;;;;;;9.00;8.33;;;;;18.77;100.00;99148.19;6288667;27;96545;-63
2023/08/10 02:40:05;;;;;;;;;10.00;8.00;;;;;18.79;100.00;99146.03;6270562;27;96318;-62
2023/08/10 02:43:10;;;;;;;;;10.00;10.00;;;;;18.84;100.00;99154.22;6262182;27;96954;-62
2023/08/10 02:46:13;;;;;;;;;9.50;8.50;;;;;18.83;100.00;99159.94;6287240;27;96615;-62
2023/08/10 02:49:17;;;;;;;;;8.00;8.00;;;;;18.84;100.00;99161.59;6288172;27;96430;-62
2023/08/10 02:52:20;;;;;;;;;10.75;9.00;;;;;18.81;100.00;99152.06;6244801;27;98524;-62
2023/08/10 02:55:23;;;;;;;;;14.20;12.80;;;;;18.84;100.00;99167.06;6275146;27;96319;-62
2023/08/10 02:58:29;;;;;;;;;12.20;11.00;;;;;18.82;100.00;99169.22;6261610;27;97087;-62
2023/08/10 03:01:32;;;;;;;;;11.00;10.00;;;;;18.85;100.00;99169.53;6265395;27;98607;-62
2023/08/10 03:04:36;;;;;;;;;10.00;9.00;;;;;18.84;100.00;99162.44;6268539;27;96441;-62
2023/08/10 03:07:39;;;;;;;;;11.60;10.60;;;;;18.87;100.00;99169.25;6287007;27;96276;-63
2023/08/10 03:10:42;;;;;;;;;11.80;11.60;;;;;18.86;100.00;99162.16;6257117;27;96311;-62
2023/08/10 03:13:48;;;;;;;;;11.60;10.60;;;;;18.85;100.00;99175.00;6270584;27;97646;-62
2023/08/10 03:16:51;;;;;;;;;10.00;10.00;;;;;18.86;100.00;99165.69;6256472;27;96468;-63
2023/08/10 03:19:54;;;;;;;;;13.00;11.60;;;;;18.89;100.00;99173.38;6251005;27;99742;-62
2023/08/10 03:22:58;;;;;;;;;9.40;9.00;;;;;18.89;100.00;99176.09;6285390;27;98180;-62
2023/08/10 03:26:01;;;;;;;;;9.60;9.00;;;;;18.89;100.00;99176.09;6271518;27;96438;-62
2023/08/10 03:29:06;;;;;;;;;15.20;12.00;;;;;18.90;100.00;99182.38;6261091;27;96445;-62
2023/08/10 03:32:09;;;;;;;;;11.00;11.00;;;;;18.95;100.00;99185.13;6281385;27;96893;-62
2023/08/10 03:35:14;;;;;;;;;10.75;10.75;;;;;18.92;100.00;99181.00;6285579;27;96470;-62
2023/08/10 03:38:18;;;;;;;;;13.40;11.00;;;;;18.99;100.00;99187.06;6264692;27;97035;-62
2023/08/10 03:41:21;;;;;;;;;14.00;13.00;;;;;18.95;100.00;99176.94;6268029;27;96396;-62
2023/08/10 03:44:26;;;;;;;;;11.20;10.20;;;;;19.06;100.00;99188.72;6277883;27;96318;-62
2023/08/10 03:47:29;;;;;;;;;13.33;13.00;;;;;19.07;100.00;99182.97;6263158;27;97296;-62
2023/08/10 03:50:32;;;;;;;;;10.00;9.00;;;;;19.11;100.00;99183.28;6286050;27;96581;-63
2023/08/10 03:53:35;;;;;;;;;12.00;11.00;;;;;19.12;100.00;99187.63;6251118;27;97020;-62
2023/08/10 03:56:39;;;;;;;;;11.33;10.67;;;;;19.11;100.00;99192.25;6255568;27;96570;-62
2023/08/10 03:59:43;;;;;;;;;11.60;10.60;;;;;19.15;100.00;99189.84;6280148;27;97302;-62
2023/08/10 04:02:47;;;;;;;;;11.60;11.00;;;;;19.18;100.00;99197.47;6267197;27;96252;-62
2023/08/10 04:05:55;;;;;;;;;14.00;13.25;;;;;19.23;100.00;99200.22;6235947;27;96670;-62
2023/08/10 04:08:58;;;;;;;;;12.00;11.00;;;;;19.33;100.00;99194.78;6267325;27;96179;-62
2023/08/10 04:12:02;;;;;;;;;12.50;12.25;;;;;19.29;100.00;99199.16;6277350;27;99381;-63
2023/08/10 04:15:08;;;;;;;;;14.00;12.00;;;;;19.43;100.00;99203.00;6255547;27;96655;-62
2023/08/10 04:18:11;;;;;;;;;14.40;13.40;;;;;19.39;100.00;99207.38;6265378;27;97323;-62
2023/08/10 04:21:15;;;;;;;;;13.00;12.00;;;;;19.41;100.00;99206.00;6261310;27;96381;-63
2023/08/10 04:24:18;;;;;;;;;13.40;10.80;;;;;19.39;100.00;99207.38;6251829;27;96874;-62
2023/08/10 04:27:21;;;;;;;;;11.80;10.00;;;;;19.38;100.00;99205.72;6288908;27;96350;-62
2023/08/10 04:30:29;;;;;;;;;12.80;12.00;;;;;19.37;100.00;99202.16;6261980;27;97166;-62
2023/08/10 04:33:32;;;;;;;;;12.80;11.00;;;;;19.27;100.00;99210.34;6250189;27;97208;-62
2023/08/10 04:36:36;;;;;;;;;12.00;12.00;;;;;19.31;100.00;99205.97;6289321;27;96391;-64
2023/08/10 04:39:39;;;;;;;;;13.40;12.00;;;;;19.45;100.00;99215.31;6289154;27;97658;-62
2023/08/10 04:42:42;;;;;;;;;13.00;11.00;;;;;19.50;100.00;99209.03;6288523;27;96458;-62
2023/08/10 04:45:47;;;;;;;;;13.40;12.40;;;;;19.60;100.00;99205.50;6270499;27;98468;-62
2023/08/10 04:48:51;;;;;;;;;11.00;11.00;;;;;19.68;100.00;99203.06;6288706;27;96641;-64
2023/08/10 04:51:54;;;;;;;;;11.75;11.50;;;;;19.60;100.00;99208.22;6289604;27;96732;-62
2023/08/10 04:54:57;;;;;;;;;13.20;12.00;;;;;19.52;100.00;99208.78;6270557;27;99216;-62
2023/08/10 04:58:00;;;;;;;;;13.00;11.00;;;;;19.50;100.00;99202.78;6271196;27;96791;-62
2023/08/10 05:01:05;;;;;;;;;15.60;13.60;;;;;19.54;100.00;99207.44;6270510;27;96297;-62
2023/08/10 05:04:08;;;;;;;;;11.80;10.00;;;;;19.45;100.00;99207.13;6271560;27;97379;-62
2023/08/10 05:07:12;;;;;;;;;13.60;13.00;;;;;19.43;100.00;99214.75;6287551;27;99845;-64
2023/08/10 05:10:15;;;;;;;;;11.00;10.00;;;;;19.41;100.00;99210.63;6287849;27;96608;-62
2023/08/10 05:13:18;;;;;;;;;12.60;12.00;;;;;19.48;100.00;99215.88;6288998;27;96311;-62
2023/08/10 05:16:23;;;;;;;;;12.40;12.40;;;;;19.50;100.00;99227.38;6256746;27;96946;-62
2023/08/10 05:19:26;;;;;;;;;18.00;16.40;;;;;19.60;100.00;99227.38;6248402;27;96671;-63
2023/08/10 05:22:29;;;;;;;;;13.00;12.00;;;;;19.70;100.00;99233.69;6277483;27;96758;-63
2023/08/10 05:25:33;;;;;;;;;13.00;11.80;;;;;19.86;100.00;99237.25;6283155;27;96331;-62
2023/08/10 05:28:36;;;;;;;;;14.00;12.00;;;;;19.94;100.00;99235.91;6264360;27;99409;-63
2023/08/10 05:31:41;;;;;;;;;14.00;12.67;;;;;19.98;100.00;99234.25;6269249;27;96770;-62
2023/08/10 05:34:44;;;;;;;;;14.00;11.25;;;;;19.98;100.00;99236.97;6286312;27;96744;-63
2023/08/10 05:37:47;;;;;;;;;16.80;15.80;;;;;19.94;100.00;99233.94;6287900;27;96882;-62
2023/08/10 05:40:51;;;;;;;;;16.00;14.00;;;;;20.01;100.00;99244.63;6288162;27;97320;-62
2023/08/10 05:43:54;;;;;;;;;15.00;14.00;;;;;19.97;100.00;99244.38;6286667;27;96537;-63
2023/08/10 05:47:06;;;;;;;;;20.50;17.00;;;;;19.86;100.00;99248.19;6286946;27;97574;-65
2023/08/10 05:50:14;;;;;;;;;19.40;16.40;;;;;19.99;100.00;99236.69;6257943;27;96333;-66
2023/08/10 05:53:18;;;;;;;;;19.00;17.00;;;;;20.02;100.00;99238.91;6291176;27;96467;-66
2023/08/10 05:56:21;;;;;;;;;15.40;14.40;;;;;20.05;100.00;99241.06;6254911;27;98678;-66
2023/08/10 05:59:24;;;;;;;;;15.50;14.25;;;;;20.05;100.00;99243.81;6271572;27;99498;-66
2023/08/10 06:02:29;;;;;;;;;15.20;14.20;;;;;19.98;100.00;99247.94;6264910;27;96583;-66
2023/08/10 06:05:32;;;;;;;;;14.40;13.00;;;;;20.03;100.00;99254.22;6265853;27;98475;-66
2023/08/10 06:08:35;;;;;;;;;14.40;12.80;;;;;20.08;100.00;99256.97;6260219;27;98605;-66
2023/08/10 06:11:38;;;;;;;;;13.00;13.00;;;;;20.17;100.00;99259.97;6290537;27;96338;-66
2023/08/10 06:14:50;;;;;;;;;16.40;15.00;;;;;20.19;100.00;99264.06;6271280;27;98694;-66
2023/08/10 06:17:56;;;;;;;;;14.20;13.20;;;;;20.18;100.00;99258.88;6272487;27;97105;-66
2023/08/10 06:21:01;;;;;;;;;15.00;12.75;;;;;20.29;100.00;99258.56;6270669;27;97166;-66
2023/08/10 06:24:06;;;;;;;;;14.00;12.50;;;;;20.28;100.00;99258.88;6291544;27;96738;-66
2023/08/10 06:27:11;;;;;;;;;15.00;14.00;;;;;20.45;100.00;99277.75;6290922;27;97153;-66
2023/08/10 06:30:16;;;;;;;;;14.20;13.60;;;;;20.52;100.00;99267.34;6272090;27;99065;-66
2023/08/10 06:33:21;;;;;;;;;17.60;16.00;;;;;20.56;100.00;99274.72;6291169;27;97090;-66
2023/08/10 06:36:26;;;;;;;;;16.40;14.00;;;;;20.69;100.00;99279.63;6292394;27;96813;-66
2023/08/10 06:39:30;;;;;;;;;16.00;13.20;;;;;20.68;100.00;99286.19;6292435;27;97668;-66
2023/08/10 06:42:33;;;;;;;;;17.00;14.00;;;;;20.65;100.00;99284.00;6266279;27;96349;-66
2023/08/10 06:45:41;;;;;;;;;17.60;15.00;;;;;20.68;100.00;99288.94;6275230;27;96271;-66
2023/08/10 06:48:47;;;;;;;;;16.00;15.00;;;;;20.69;100.00;99284.28;6278909;27;96868;-66
2023/08/10 06:51:51;;;;;;;;;19.40;17.00;;;;;20.72;100.00;99294.69;6290948;27;96349;-66
2023/08/10 06:54:54;;;;;;;;;16.75;14.00;;;;;20.84;100.00;99295.19;6265457;27;99528;-66
2023/08/10 06:57:57;;;;;;;;;18.40;15.40;;;;;20.91;100.00;99298.47;6291430;27;96369;-66
2023/08/10 07:01:00;;;;;;;;;16.00;13.00;;;;;21.02;100.00;99296.50;6275821;27;96921;-66
2023/08/10 07:04:06;;;;;;;;;15.60;14.60;;;;;21.18;100.00;99301.69;6291661;27;96947;-66
2023/08/10 07:07:09;;;;;;;;;19.60;16.00;;;;;21.43;100.00;99300.75;6292228;27;96668;-66
2023/08/10 07:10:13;;;;;;;;;16.20;14.60;;;;;21.86;100.00;99307.31;6275730;27;96204;-66
2023/08/10 07:13:16;;;;;;;;;16.00;14.00;;;;;22.14;100.00;99307.72;6277906;27;98475;-66
2023/08/10 07:16:19;;;;;;;;;15.40;14.40;;;;;22.39;100.00;99312.97;6307655;27;96371;-66
2023/08/10 07:19:24;;;;;;;;;14.00;13.00;;;;;22.64;100.00;99311.91;6291589;27;97671;-66
2023/08/10 07:22:27;;;;;;;;;13.75;12.75;;;;;22.67;100.00;99314.09;6291696;27;96995;-66
2023/08/10 07:25:32;;;;;;;;;15.00;14.00;;;;;22.85;100.00;99324.38;6290890;27;96447;-66
2023/08/10 07:28:36;;;;;;;;;12.00;11.00;;;;;22.96;100.00;99317.66;6261054;27;97195;-66
2023/08/10 07:31:39;;;;;;;;;16.00;15.40;;;;;23.09;100.00;99329.88;6293586;27;97389;-67
2023/08/10 07:34:43;;;;;;;;;13.00;13.00;;;;;23.15;100.00;99328.72;6263385;27;97015;-66
2023/08/10 07:37:48;;;;;;;;;14.00;13.00;;;;;23.21;100.00;99330.31;6292591;27;96379;-66
2023/08/10 07:40:52;;;;;;;;;12.00;11.00;;;;;23.44;100.00;99317.63;6293354;27;97073;-66
2023/08/10 07:43:55;;;;;;;;;13.60;12.00;;;;;24.03;100.00;99322.56;6291465;27;96392;-66
2023/08/10 07:46:58;;;;;;;;;13.60;13.00;;;;;24.65;100.00;99323.22;6272047;27;97089;-67
2023/08/10 07:50:03;;;;;;;;;15.50;13.00;;;;;25.13;100.00;99320.94;6272233;27;96365;-66
2023/08/10 07:53:06;;;;;;;;;15.00;14.00;;;;;25.42;100.00;99311.22;6290726;27;96378;-67
2023/08/10 07:56:11;;;;;;;;;14.40;14.00;;;;;25.33;100.00;99315.81;6294630;27;96966;-67
2023/08/10 07:59:16;;;;;;;;;14.60;11.60;;;;;25.29;100.00;99311.22;6270722;27;96869;-67
2023/08/10 08:02:19;;;;;;;;;14.80;12.80;;;;;25.27;100.00;99317.03;6296596;27;96971;-67
2023/08/10 08:05:24;;;;;;;;;12.40;12.00;;;;;25.36;100.00;99319.94;6295797;27;96560;-67
2023/08/10 08:08:28;;;;;;;;;9.20;9.00;;;;;25.49;100.00;99308.03;6298566;27;96410;-67
2023/08/10 08:11:32;;;;;;;;;12.00;11.00;;;;;25.65;100.00;99311.31;6281286;27;96323;-67
2023/08/10 08:14:35;;;;;;;;;9.60;9.00;;;;;25.62;100.00;99311.91;6300002;27;96375;-67
2023/08/10 08:18:16;;;;;;;;;12.40;11.20;;;;;25.70;100.00;99309.25;6300327;27;96383;-67
2023/08/10 08:21:21;;;;;;;;;12.40;11.00;;;;;25.77;100.00;99297.75;6299230;27;96319;-66
2023/08/10 08:24:25;;;;;;;;;10.00;10.00;;;;;25.93;100.00;99307.34;6272943;27;98680;-67
2023/08/10 08:27:28;;;;;;;;;11.33;9.00;;;;;26.18;100.00;99303.97;6261801;27;97033;-67
2023/08/10 08:30:31;;;;;;;;;8.00;8.00;;;;;26.53;100.00;99304.22;6295130;27;96387;-65
2023/08/10 08:33:35;;;;;;;;;9.00;9.00;;;;;27.07;100.00;99303.84;6300871;27;96555;-65
2023/08/10 08:36:40;;;;;;;;;9.00;9.00;;;;;26.96;100.00;99302.53;6303107;27;96836;-65
2023/08/10 08:39:43;;;;;;;;;8.20;7.60;;;;;27.05;100.00;99305.31;6319044;27;96969;-65
2023/08/10 08:42:49;;;;;;;;;7.40;5.60;;;;;27.63;100.00;99306.94;6288005;27;96392;-65
2023/08/10 08:45:52;;;;;;;;;7.60;7.00;;;;;28.13;100.00;99307.34;6285695;27;96738;-65
2023/08/10 08:48:56;;;;;;;;;7.00;6.00;;;;;28.38;100.00;99273.22;6305738;27;96303;-65
2023/08/10 08:52:02;;;;;;;;;5.80;5.00;;;;;28.75;100.00;99291.06;6323420;27;96345;-65
2023/08/10 08:55:08;;;;;;;;;6.00;5.50;;;;;28.86;100.00;99295.13;6303374;27;96982;-65
2023/08/10 08:58:11;;;;;;;;;7.00;6.00;;;;;28.65;100.00;99295.00;6303347;27;96394;-65
2023/08/10 09:01:15;;;;;;;;;8.00;7.25;;;;;28.28;100.00;99293.78;6322278;27;96362;-65
2023/08/10 09:04:18;;;;;;;;;4.25;4.00;;;;;28.71;100.00;99295.63;6322481;27;96665;-65
2023/08/10 09:07:22;;;;;;;;;7.40;7.00;;;;;29.08;95.98;99296.81;6321433;27;96374;-65
2023/08/10 09:10:26;;;;;;;;;4.80;4.00;;;;;29.42;92.03;99301.44;6303305;27;99272;-65
2023/08/10 09:13:30;;;;;;;;;6.00;6.00;;;;;29.63;92.21;99296.69;6298283;27;96833;-65
2023/08/10 09:16:34;;;;;;;;;4.60;4.00;;;;;29.96;90.95;99294.81;6287162;27;98759;-65
2023/08/10 09:19:38;;;;;;;;;4.00;4.00;;;;;30.03;88.34;99291.50;6305033;27;97816;-65
2023/08/10 09:22:43;;;;;;;;;7.00;6.75;;;;;30.17;84.01;99294.00;6322473;27;96561;-65
2023/08/10 09:25:46;;;;;;;;;7.00;7.00;;;;;29.76;79.43;99290.06;6322505;27;96359;-65
2023/08/10 09:28:50;;;;;;;;;6.40;5.40;;;;;29.83;82.68;99292.28;6321479;27;96350;-65
2023/08/10 09:31:58;;;;;;;;;5.00;5.00;;;;;29.29;81.40;99301.28;6286236;27;96389;-65
2023/08/10 09:35:03;;;;;;;;;5.50;5.00;;;;;29.05;81.41;99291.94;6288407;27;96827;-65
2023/08/10 09:38:08;;;;;;;;;7.00;6.00;;;;;28.81;86.27;99289.75;6278837;27;96573;-65
2023/08/10 09:41:12;;;;;;;;;5.60;5.20;;;;;28.77;86.45;99292.38;6311857;27;96198;-65
2023/08/10 09:44:15;;;;;;;;;6.00;5.00;;;;;28.46;83.97;99293.75;6319446;27;96409;-65
2023/08/10 09:47:20;;;;;;;;;5.80;5.80;;;;;28.34;85.34;99294.44;6301525;27;98468;-65
2023/08/10 09:50:23;;;;;;;;;6.00;6.00;;;;;28.59;85.84;99287.19;6302954;27;96386;-65
2023/08/10 09:53:29;;;;;;;;;5.00;4.00;;;;;28.65;83.42;99295.00;6319281;27;96572;-65
2023/08/10 09:56:32;;;;;;;;;5.00;5.00;;;;;28.61;85.98;99299.59;6288368;27;96886;-65
2023/08/10 09:59:35;;;;;;;;;3.00;3.00;;;;;28.87;87.53;99290.41;6313205;27;96311;-65
2023/08/10 10:02:38;;;;;;;;;5.50;5.00;;;;;29.33;81.35;99295.06;6300300;27;96653;-65
2023/08/10 10:05:42;;;;;;;;;5.00;5.00;;;;;29.61;84.31;99283.16;6315009;27;96265;-65
2023/08/10 10:08:56;;;;;;;;;5.60;4.60;;;;;29.85;84.23;99288.03;6318651;27;96496;-66
2023/08/10 10:12:01;;;;;;;;;5.80;5.80;;;;;29.57;82.20;99240.50;6318733;27;96620;-65
2023/08/10 10:15:07;;;;;;;;;5.00;5.00;;;;;29.69;82.44;99281.44;6309771;27;96442;-65
2023/08/10 10:18:11;;;;;;;;;6.00;6.00;;;;;29.68;82.54;99280.63;6285293;27;97159;-65
2023/08/10 10:21:14;;;;;;;;;7.20;5.00;;;;;29.59;80.63;99282.66;6320836;27;96314;-65
2023/08/10 10:24:20;;;;;;;;;4.80;4.20;;;;;29.52;81.48;99287.13;6295517;27;97081;-65
2023/08/10 10:27:38;;;;;;;;;5.00;5.00;;;;;29.44;80.71;99288.81;6315932;27;98431;-65
2023/08/10 10:30:54;;;;;;;;;4.00;4.00;;;;;29.40;79.09;99285.09;6298758;27;96713;-65
2023/08/10 10:33:58;;;;;;;;;4.60;4.60;;;;;29.43;80.47;99280.81;6303225;27;96154;-65
2023/08/10 10:37:08;;;;;;;;;4.00;4.00;;;;;29.42;80.00;99287.53;6319866;27;96239;-65
2023/08/10 10:40:18;;;;;;;;;6.00;5.00;;;;;29.41;82.46;99278.38;6284975;27;97373;-65
2023/08/10 10:43:21;;;;;;;;;6.00;5.00;;;;;29.35;77.21;99279.72;6313196;27;98549;-65
2023/08/10 10:46:41;;;;;;;;;4.60;4.00;;;;;29.22;78.88;99275.19;6294715;27;96238;-65
2023/08/10 10:49:54;;;;;;;;;5.00;5.00;;;;;29.17;78.75;99270.66;6317723;27;96276;-65
2023/08/10 10:52:59;;;;;;;;;5.40;5.00;;;;;29.37;76.98;99271.84;6302366;27;98487;-65
2023/08/10 10:56:07;;;;;;;;;5.80;4.80;;;;;29.80;79.28;99277.13;6285963;27;96845;-65
2023/08/10 10:59:10;;;;;;;;;6.00;5.20;;;;;30.16;76.81;99278.44;6293944;27;98355;-65
2023/08/10 11:02:14;;;;;;;;;4.00;4.00;;;;;30.17;74.62;99269.78;6303317;27;98429;-66
2023/08/10 11:05:20;;;;;;;;;5.00;5.00;;;;;29.90;71.98;99271.19;6320767;27;96148;-66
2023/08/10 11:08:25;;;;;;;;;6.00;6.00;;;;;29.68;78.00;99272.28;6320528;27;96089;-66
2023/08/10 11:11:30;;;;;;;;;6.00;5.00;;;;;29.63;75.85;99268.91;6320497;27;96298;-66
2023/08/10 11:14:34;;;;;;;;;6.00;5.75;;;;;29.54;76.38;99265.38;6299827;27;96706;-65
2023/08/10 11:17:37;;;;;;;;;5.00;4.00;;;;;29.61;77.48;99260.94;6320279;27;97175;-65
2023/08/10 11:20:51;;;;;;;;;4.60;4.00;;;;;29.68;81.47;99260.38;6294578;27;96399;-65
2023/08/10 11:23:57;;;;;;;;;5.00;5.00;;;;;29.61;79.85;99265.66;6302199;27;96338;-65
2023/08/10 11:27:02;;;;;;;;;5.00;4.60;;;;;29.55;77.50;99264.22;6284699;27;98509;-65
2023/08/10 11:30:09;;;;;;;;;4.00;4.00;;;;;29.39;80.15;99269.56;6302237;27;96661;-66
2023/08/10 11:33:12;;;;;;;;;5.00;5.00;;;;;29.25;82.28;99266.19;6284845;27;98437;-65
2023/08/10 11:36:16;;;;;;;;;6.00;6.00;;;;;29.15;83.51;99263.81;6302165;27;97213;-65
2023/08/10 11:39:22;;;;;;;;;4.40;4.40;;;;;29.12;85.86;99258.94;6301381;27;97254;-65
2023/08/10 11:42:34;;;;;;;;;3.60;3.60;;;;;29.15;79.42;99255.47;6291973;27;96690;-65
2023/08/10 11:45:39;;;;;;;;;7.00;5.40;;;;;29.56;86.68;99249.19;6318077;27;96840;-65
2023/08/10 11:48:43;;;;;;;;;5.20;5.00;;;;;29.81;82.11;99261.25;6301400;27;96938;-65
2023/08/10 11:51:47;;;;;;;;;4.75;4.00;;;;;29.84;78.30;99260.56;6301827;27;96334;-65
2023/08/10 11:54:52;;;;;;;;;7.00;7.00;;;;;29.69;74.00;99259.22;6292259;27;98456;-65
2023/08/10 11:57:58;;;;;;;;;5.00;5.00;;;;;29.57;78.70;99259.13;6316388;27;96896;-66
2023/08/10 12:01:04;;;;;;;;;4.80;4.00;;;;;29.51;80.09;99261.31;6319320;27;96903;-66
2023/08/10 12:04:11;;;;;;;;;6.50;6.50;;;;;29.36;76.76;99259.13;6302255;27;96312;-66
2023/08/10 12:07:22;;;;;;;;;10.00;8.00;;;;;29.31;82.46;99250.19;6316281;27;96689;-66
2023/08/10 12:10:25;;;;;;;;;8.67;6.67;;;;;29.10;79.33;99250.91;6288065;27;98405;-66
2023/08/10 12:13:30;;;;;;;;;6.00;6.00;;;;;29.32;85.27;99237.94;6324166;27;96347;-65
2023/08/10 12:16:34;;;;;;;;;5.00;4.50;;;;;29.79;81.12;99236.56;6300835;27;98445;-65
2023/08/10 12:19:38;;;;;;;;;5.00;4.00;;;;;29.82;72.75;99244.22;6301449;27;96363;-66
2023/08/10 12:22:41;;;;;;;;;8.00;6.80;;;;;29.90;73.23;99245.34;6282656;27;96352;-66
2023/08/10 12:25:45;;;;;;;;;8.60;8.00;;;;;29.90;74.66;99235.03;6277088;27;98570;-66
2023/08/10 12:28:50;;;;;;;;;7.80;7.00;;;;;30.17;68.49;99236.41;6281611;27;96922;-66
2023/08/10 12:31:53;;;;;;;;;5.00;4.40;;;;;30.39;67.81;99235.22;6292179;27;96896;-65
2023/08/10 12:34:57;;;;;;;;;6.20;6.00;;;;;30.05;66.32;99228.84;6290538;27;98874;-67
2023/08/10 12:38:00;;;;;;;;;4.20;4.20;;;;;29.97;66.21;99223.34;6311958;27;96933;-66
2023/08/10 12:41:03;;;;;;;;;6.40;6.00;;;;;29.76;74.30;99222.56;6320908;27;96315;-66
2023/08/10 12:44:08;;;;;;;;;5.40;5.40;;;;;29.60;72.99;99233.47;6323631;27;96272;-66
2023/08/10 12:47:11;;;;;;;;;5.60;5.60;;;;;29.43;73.30;99237.19;6323005;27;96338;-66
2023/08/10 12:50:19;;;;;;;;;5.00;5.00;;;;;29.77;71.55;99232.50;6288625;27;97159;-66
2023/08/10 12:53:22;;;;;;;;;5.00;4.40;;;;;30.00;74.33;99225.47;6281815;27;97414;-66
2023/08/10 12:56:25;;;;;;;;;6.60;5.60;;;;;30.47;71.15;99231.53;6323639;27;96201;-66
2023/08/10 12:59:30;;;;;;;;;4.00;4.00;;;;;30.65;64.56;99223.78;6317388;27;96251;-66
2023/08/10 13:02:33;;;;;;;;;6.00;5.60;;;;;30.72;61.16;99224.84;6323398;27;96333;-66
2023/08/10 13:05:36;;;;;;;;;6.00;5.50;;;;;30.80;59.61;99220.31;6287641;27;96654;-66
2023/08/10 13:08:40;;;;;;;;;4.00;4.00;;;;;30.82;60.64;99220.78;6322915;27;96388;-66
2023/08/10 13:11:43;;;;;;;;;4.00;4.00;;;;;30.66;60.04;99215.09;6301564;27;96801;-66
2023/08/10 13:14:47;;;;;;;;;6.00;5.00;;;;;30.42;59.58;99221.41;6322877;27;96371;-66
2023/08/10 13:17:51;;;;;;;;;5.00;5.00;;;;;30.67;63.98;99216.72;6301881;27;97092;-66
2023/08/10 13:20:54;;;;;;;;;3.00;3.00;;;;;30.86;57.84;99207.78;6322908;27;96411;-66
2023/08/10 13:23:57;;;;;;;;;4.00;4.00;;;;;30.93;58.68;99210.81;6304530;27;96774;-66
2023/08/10 13:27:01;;;;;;;;;5.00;4.00;;;;;30.97;61.09;99212.56;6304630;27;96649;-66
2023/08/10 13:30:08;;;;;;;;;4.00;4.00;;;;;30.74;59.39;99205.81;6303030;27;97361;-66
2023/08/10 13:33:11;;;;;;;;;4.40;4.40;;;;;30.56;59.81;99207.19;6304652;27;98543;-66
2023/08/10 13:36:15;;;;;;;;;7.00;6.00;;;;;30.34;57.04;99202.84;6279698;27;96614;-66
2023/08/10 13:39:18;;;;;;;;;5.00;4.20;;;;;30.03;59.06;99199.75;6304628;27;97665;-65
2023/08/10 13:42:21;;;;;;;;;5.80;5.00;;;;;30.19;63.96;99205.47;6304722;27;96586;-66
2023/08/10 13:45:25;;;;;;;;;4.00;3.40;;;;;30.38;63.12;99192.66;6286160;27;96141;-66
2023/08/10 13:48:29;;;;;;;;;4.00;4.00;;;;;30.62;56.13;99191.91;6319681;27;96306;-66
2023/08/10 13:51:32;;;;;;;;;5.00;5.00;;;;;30.80;58.94;99190.50;6299471;27;96668;-66
2023/08/10 13:54:37;;;;;;;;;6.00;6.00;;;;;30.57;55.58;99189.34;6303922;27;96074;-66
2023/08/10 13:57:41;;;;;;;;;6.00;4.00;;;;;30.46;57.73;99185.38;6320712;27;96396;-66
2023/08/10 14:00:45;;;;;;;;;4.00;4.00;;;;;29.99;55.32;99190.47;6318069;27;98540;-67
2023/08/10 14:03:49;;;;;;;;;4.50;4.00;;;;;29.49;59.74;99183.06;6293473;27;96791;-66
2023/08/10 14:06:52;;;;;;;;;5.40;4.00;;;;;29.19;60.99;99185.03;6306983;27;96290;-66
2023/08/10 14:09:56;;;;;;;;;5.20;4.00;;;;;29.17;55.68;99190.13;6300927;27;96691;-65
2023/08/10 14:12:59;;;;;;;;;4.00;4.00;;;;;29.01;58.26;99185.50;6325779;27;96308;-66
2023/08/10 14:16:03;;;;;;;;;3.00;3.00;;;;;28.74;61.11;99184.00;6322870;27;96902;-66